sensor_id;sensor_type;location;lat;lon;timestamp;P1;durP1;ratioP1;P2;durP2;ratioP2
25231;SDS011;13176;51.140;6.290;2023-06-26T00:01:34;1999.90;;;999.90;;
25231;SDS011;13176;51.140;6.290;2023-06-26T00:04:01;1999.90;;;999.90;;
25231;SDS011;13176;51.140;6.290;2023-06-26T00:06:28;1999.90;;;999.90;;
25231;SDS011;13176;51.140;6.290;2023-06-26T00:08:57;1999.90;;;999.90;;
25231;SDS011;13176;51.140;6.290;2023-06-26T00:11:25;1999.90;;;999.90;;
25231;SDS011;13176;51.140;6.290;2023-06-26T00:13:53;1999.90;;;999.90;;
25231;SDS011;13176;51.140;6.290;2023-06-26T00:16:22;1999.90;;;999.90;;
25231;SDS011;13176;51.140;6.290;2023-06-26T00:18:49;1999.90;;;999.90;;
25231;SDS011;13176;51.140;6.290;2023-06-26T00:21:15;1999.90;;;999.90;;
25231;SDS011;13176;51.140;6.290;2023-06-26T00:23:41;1999.90;;;999.90;;
25231;SDS011;13176;51.140;6.290;2023-06-26T00:26:19;1999.90;;;999.90;;
25231;SDS011;13176;51.140;6.290;2023-06-26T00:28:46;1999.90;;;999.90;;
25231;SDS011;13176;51.140;6.290;2023-06-26T00:31:12;1999.90;;;999.90;;
25231;SDS011;13176;51.140;6.290;2023-06-26T00:33:40;1999.90;;;999.90;;
25231;SDS011;13176;51.140;6.290;2023-06-26T00:36:07;1999.90;;;999.90;;
25231;SDS011;13176;51.140;6.290;2023-06-26T00:38:34;1999.90;;;999.90;;
25231;SDS011;13176;51.140;6.290;2023-06-26T00:41:01;1999.90;;;999.90;;
25231;SDS011;13176;51.140;6.290;2023-06-26T00:43:27;1999.90;;;999.90;;
25231;SDS011;13176;51.140;6.290;2023-06-26T00:45:54;1999.90;;;999.90;;
25231;SDS011;13176;51.140;6.290;2023-06-26T00:48:24;1999.90;;;999.90;;
25231;SDS011;13176;51.140;6.290;2023-06-26T00:50:50;1999.90;;;999.90;;
25231;SDS011;13176;51.140;6.290;2023-06-26T00:53:17;1999.90;;;999.90;;
25231;SDS011;13176;51.140;6.290;2023-06-26T00:55:44;1999.90;;;999.90;;
25231;SDS011;13176;51.140;6.290;2023-06-26T00:58:11;1999.90;;;999.90;;
25231;SDS011;13176;51.140;6.290;2023-06-26T01:00:38;1999.90;;;999.90;;
25231;SDS011;13176;51.140;6.290;2023-06-26T01:03:06;1999.90;;;999.90;;
25231;SDS011;13176;51.140;6.290;2023-06-26T01:05:32;1999.90;;;999.90;;
25231;SDS011;13176;51.140;6.290;2023-06-26T01:07:59;1999.90;;;999.90;;
25231;SDS011;13176;51.140;6.290;2023-06-26T01:10:28;1999.90;;;999.90;;
25231;SDS011;13176;51.140;6.290;2023-06-26T01:12:55;1999.90;;;999.90;;
25231;SDS011;13176;51.140;6.290;2023-06-26T01:15:23;1999.90;;;999.90;;
25231;SDS011;13176;51.140;6.290;2023-06-26T01:17:50;1151.43;;;999.90;;
25231;SDS011;13176;51.140;6.290;2023-06-26T01:20:17;1999.90;;;999.90;;
25231;SDS011;13176;51.140;6.290;2023-06-26T01:28:31;1144.63;;;999.90;;
25231;SDS011;13176;51.140;6.290;2023-06-26T01:30:58;1545.63;;;958.22;;
25231;SDS011;13176;51.140;6.290;2023-06-26T01:33:28;1148.00;;;999.90;;
25231;SDS011;13176;51.140;6.290;2023-06-26T01:35:55;1149.30;;;999.90;;
25231;SDS011;13176;51.140;6.290;2023-06-26T01:38:22;997.80;;;908.17;;
25231;SDS011;13176;51.140;6.290;2023-06-26T01:40:57;1153.53;;;999.90;;
25231;SDS011;13176;51.140;6.290;2023-06-26T01:46:30;1082.82;;;977.17;;
25231;SDS011;13176;51.140;6.290;2023-06-26T01:49:03;1083.85;;;976.25;;
25231;SDS011;13176;51.140;6.290;2023-06-26T01:51:34;1001.85;;;902.55;;
25231;SDS011;13176;51.140;6.290;2023-06-26T01:54:10;795.50;;;729.88;;
25231;SDS011;13176;51.140;6.290;2023-06-26T01:56:45;874.25;;;803.50;;
25231;SDS011;13176;51.140;6.290;2023-06-26T01:59:18;513.67;;;480.10;;
25231;SDS011;13176;51.140;6.290;2023-06-26T02:01:46;862.60;;;786.40;;
25231;SDS011;13176;51.140;6.290;2023-06-26T02:04:14;945.45;;;865.50;;
25231;SDS011;13176;51.140;6.290;2023-06-26T02:06:41;1006.95;;;916.42;;
25231;SDS011;13176;51.140;6.290;2023-06-26T02:09:07;1082.93;;;978.00;;
25231;SDS011;13176;51.140;6.290;2023-06-26T02:11:34;914.00;;;830.25;;
25231;SDS011;13176;51.140;6.290;2023-06-26T02:14:00;1063.53;;;960.85;;
25231;SDS011;13176;51.140;6.290;2023-06-26T02:16:27;1043.28;;;946.53;;
25231;SDS011;13176;51.140;6.290;2023-06-26T02:18:53;1040.20;;;942.10;;
25231;SDS011;13176;51.140;6.290;2023-06-26T02:21:22;1139.22;;;999.90;;
25231;SDS011;13176;51.140;6.290;2023-06-26T02:23:48;1162.80;;;999.90;;
25231;SDS011;13176;51.140;6.290;2023-06-26T02:26:15;1165.07;;;999.90;;
25231;SDS011;13176;51.140;6.290;2023-06-26T02:28:41;1999.90;;;999.90;;
25231;SDS011;13176;51.140;6.290;2023-06-26T02:31:08;1999.90;;;999.90;;
25231;SDS011;13176;51.140;6.290;2023-06-26T02:33:34;1265.10;;;999.90;;
25231;SDS011;13176;51.140;6.290;2023-06-26T02:36:01;1402.15;;;999.90;;
25231;SDS011;13176;51.140;6.290;2023-06-26T02:38:27;1999.90;;;999.90;;
25231;SDS011;13176;51.140;6.290;2023-06-26T02:40:55;1999.90;;;999.90;;
25231;SDS011;13176;51.140;6.290;2023-06-26T02:43:21;1999.90;;;999.90;;
25231;SDS011;13176;51.140;6.290;2023-06-26T02:45:48;1999.90;;;999.90;;
25231;SDS011;13176;51.140;6.290;2023-06-26T02:48:14;1999.90;;;999.90;;
25231;SDS011;13176;51.140;6.290;2023-06-26T02:50:41;1999.90;;;999.90;;
25231;SDS011;13176;51.140;6.290;2023-06-26T02:53:07;1999.90;;;999.90;;
25231;SDS011;13176;51.140;6.290;2023-06-26T02:55:34;1999.90;;;999.90;;
25231;SDS011;13176;51.140;6.290;2023-06-26T02:58:01;1999.90;;;999.90;;
25231;SDS011;13176;51.140;6.290;2023-06-26T03:00:27;1999.90;;;999.90;;
25231;SDS011;13176;51.140;6.290;2023-06-26T03:02:56;1999.90;;;999.90;;
25231;SDS011;13176;51.140;6.290;2023-06-26T03:05:23;1999.90;;;999.90;;
25231;SDS011;13176;51.140;6.290;2023-06-26T03:07:50;1999.90;;;999.90;;
25231;SDS011;13176;51.140;6.290;2023-06-26T03:10:16;1999.90;;;999.90;;
25231;SDS011;13176;51.140;6.290;2023-06-26T03:12:44;1999.90;;;999.90;;
25231;SDS011;13176;51.140;6.290;2023-06-26T03:15:10;1999.90;;;999.90;;
25231;SDS011;13176;51.140;6.290;2023-06-26T03:17:37;1999.90;;;999.90;;
25231;SDS011;13176;51.140;6.290;2023-06-26T03:20:04;1999.90;;;999.90;;
25231;SDS011;13176;51.140;6.290;2023-06-26T03:22:33;1999.90;;;999.90;;
25231;SDS011;13176;51.140;6.290;2023-06-26T03:25:01;1307.05;;;979.00;;
25231;SDS011;13176;51.140;6.290;2023-06-26T03:27:31;1302.10;;;977.40;;
25231;SDS011;13176;51.140;6.290;2023-06-26T03:29:57;1101.35;;;997.03;;
25231;SDS011;13176;51.140;6.290;2023-06-26T03:32:24;1033.22;;;945.53;;
25231;SDS011;13176;51.140;6.290;2023-06-26T03:34:50;1061.13;;;964.08;;
25231;SDS011;13176;51.140;6.290;2023-06-26T03:37:17;1101.28;;;994.47;;
25231;SDS011;13176;51.140;6.290;2023-06-26T03:39:44;1102.57;;;997.35;;
25231;SDS011;13176;51.140;6.290;2023-06-26T03:42:13;1062.18;;;963.83;;
25231;SDS011;13176;51.140;6.290;2023-06-26T03:44:39;1265.30;;;938.65;;
25231;SDS011;13176;51.140;6.290;2023-06-26T03:47:05;1094.70;;;989.55;;
25231;SDS011;13176;51.140;6.290;2023-06-26T03:49:32;1101.22;;;995.97;;
25231;SDS011;13176;51.140;6.290;2023-06-26T03:51:58;1099.40;;;992.33;;
25231;SDS011;13176;51.140;6.290;2023-06-26T03:54:25;1319.05;;;987.35;;
25231;SDS011;13176;51.140;6.290;2023-06-26T03:56:52;1311.95;;;981.13;;
25231;SDS011;13176;51.140;6.290;2023-06-26T03:59:18;1101.57;;;993.83;;
25231;SDS011;13176;51.140;6.290;2023-06-26T04:01:45;1091.47;;;984.90;;
25231;SDS011;13176;51.140;6.290;2023-06-26T04:04:11;1008.13;;;917.30;;
25231;SDS011;13176;51.140;6.290;2023-06-26T04:06:38;1030.65;;;936.85;;
25231;SDS011;13176;51.140;6.290;2023-06-26T04:09:05;1019.08;;;928.45;;
25231;SDS011;13176;51.140;6.290;2023-06-26T04:11:32;858.05;;;788.22;;
25231;SDS011;13176;51.140;6.290;2023-06-26T04:14:01;797.67;;;737.15;;
25231;SDS011;13176;51.140;6.290;2023-06-26T04:16:30;816.20;;;752.13;;
25231;SDS011;13176;51.140;6.290;2023-06-26T04:18:56;986.78;;;902.45;;
25231;SDS011;13176;51.140;6.290;2023-06-26T04:21:23;1021.58;;;931.85;;
25231;SDS011;13176;51.140;6.290;2023-06-26T04:23:52;899.05;;;825.22;;
25231;SDS011;13176;51.140;6.290;2023-06-26T04:26:19;1003.47;;;914.97;;
25231;SDS011;13176;51.140;6.290;2023-06-26T04:28:45;1024.63;;;936.05;;
25231;SDS011;13176;51.140;6.290;2023-06-26T04:31:13;1110.80;;;996.55;;
25231;SDS011;13176;51.140;6.290;2023-06-26T04:33:40;1324.75;;;995.30;;
25231;SDS011;13176;51.140;6.290;2023-06-26T04:36:08;1999.90;;;999.90;;
25231;SDS011;13176;51.140;6.290;2023-06-26T04:38:35;1999.90;;;999.90;;
25231;SDS011;13176;51.140;6.290;2023-06-26T04:41:01;1999.90;;;999.90;;
25231;SDS011;13176;51.140;6.290;2023-06-26T04:43:28;1999.90;;;999.90;;
25231;SDS011;13176;51.140;6.290;2023-06-26T04:45:55;1999.90;;;999.90;;
25231;SDS011;13176;51.140;6.290;2023-06-26T04:48:22;1999.90;;;999.90;;
25231;SDS011;13176;51.140;6.290;2023-06-26T04:50:56;1999.90;;;999.90;;
25231;SDS011;13176;51.140;6.290;2023-06-26T04:53:22;1999.90;;;999.90;;
25231;SDS011;13176;51.140;6.290;2023-06-26T04:55:50;1999.90;;;999.90;;
25231;SDS011;13176;51.140;6.290;2023-06-26T04:58:17;1999.90;;;999.90;;
25231;SDS011;13176;51.140;6.290;2023-06-26T05:00:44;1325.18;;;994.30;;
25231;SDS011;13176;51.140;6.290;2023-06-26T05:03:15;1999.90;;;999.90;;
25231;SDS011;13176;51.140;6.290;2023-06-26T05:05:44;1083.15;;;975.67;;
25231;SDS011;13176;51.140;6.290;2023-06-26T05:08:15;1999.90;;;999.90;;
25231;SDS011;13176;51.140;6.290;2023-06-26T05:10:42;1999.90;;;999.90;;
25231;SDS011;13176;51.140;6.290;2023-06-26T05:13:09;1114.78;;;999.22;;
25231;SDS011;13176;51.140;6.290;2023-06-26T05:15:36;1147.63;;;999.90;;
25231;SDS011;13176;51.140;6.290;2023-06-26T05:18:03;1318.05;;;984.13;;
25231;SDS011;13176;51.140;6.290;2023-06-26T05:20:29;1340.45;;;999.90;;
25231;SDS011;13176;51.140;6.290;2023-06-26T05:22:55;1343.50;;;999.90;;
25231;SDS011;13176;51.140;6.290;2023-06-26T05:25:22;1128.22;;;999.90;;
25231;SDS011;13176;51.140;6.290;2023-06-26T05:27:50;1143.00;;;999.90;;
25231;SDS011;13176;51.140;6.290;2023-06-26T05:30:19;1167.88;;;999.90;;
25231;SDS011;13176;51.140;6.290;2023-06-26T05:32:46;1118.57;;;998.67;;
25231;SDS011;13176;51.140;6.290;2023-06-26T05:35:14;1106.80;;;995.65;;
25231;SDS011;13176;51.140;6.290;2023-06-26T05:37:43;1060.20;;;960.53;;
25231;SDS011;13176;51.140;6.290;2023-06-26T05:40:10;1133.85;;;999.90;;
25231;SDS011;13176;51.140;6.290;2023-06-26T05:42:38;1096.03;;;989.92;;
25231;SDS011;13176;51.140;6.290;2023-06-26T05:45:05;1080.47;;;976.10;;
25231;SDS011;13176;51.140;6.290;2023-06-26T05:47:32;1100.90;;;990.25;;
25231;SDS011;13176;51.140;6.290;2023-06-26T05:49:58;1120.80;;;998.83;;
25231;SDS011;13176;51.140;6.290;2023-06-26T05:52:25;1109.15;;;994.28;;
25231;SDS011;13176;51.140;6.290;2023-06-26T05:54:51;1081.57;;;977.35;;
25231;SDS011;13176;51.140;6.290;2023-06-26T05:57:18;1111.70;;;995.28;;
25231;SDS011;13176;51.140;6.290;2023-06-26T05:59:45;1092.13;;;984.78;;
25231;SDS011;13176;51.140;6.290;2023-06-26T06:02:12;1126.50;;;999.85;;
25231;SDS011;13176;51.140;6.290;2023-06-26T06:04:39;1110.63;;;997.17;;
25231;SDS011;13176;51.140;6.290;2023-06-26T06:07:08;1116.50;;;998.47;;
25231;SDS011;13176;51.140;6.290;2023-06-26T06:09:34;1109.10;;;997.47;;
25231;SDS011;13176;51.140;6.290;2023-06-26T06:12:01;1055.45;;;956.17;;
25231;SDS011;13176;51.140;6.290;2023-06-26T06:14:27;1095.18;;;991.92;;
25231;SDS011;13176;51.140;6.290;2023-06-26T06:16:54;1076.65;;;974.85;;
25231;SDS011;13176;51.140;6.290;2023-06-26T06:19:22;1308.75;;;982.58;;
25231;SDS011;13176;51.140;6.290;2023-06-26T06:21:48;1063.68;;;964.53;;
25231;SDS011;13176;51.140;6.290;2023-06-26T06:24:15;1293.15;;;971.55;;
25231;SDS011;13176;51.140;6.290;2023-06-26T06:26:41;1999.90;;;999.90;;
25231;SDS011;13176;51.140;6.290;2023-06-26T06:29:08;1289.32;;;966.10;;
25231;SDS011;13176;51.140;6.290;2023-06-26T06:31:34;1103.82;;;996.22;;
25231;SDS011;13176;51.140;6.290;2023-06-26T06:34:01;1069.88;;;970.65;;
25231;SDS011;13176;51.140;6.290;2023-06-26T06:36:27;1122.55;;;999.90;;
25231;SDS011;13176;51.140;6.290;2023-06-26T06:38:57;1070.10;;;973.70;;
25231;SDS011;13176;51.140;6.290;2023-06-26T06:41:23;1068.75;;;970.55;;
25231;SDS011;13176;51.140;6.290;2023-06-26T06:43:50;1081.45;;;982.45;;
25231;SDS011;13176;51.140;6.290;2023-06-26T06:46:16;1320.28;;;992.33;;
25231;SDS011;13176;51.140;6.290;2023-06-26T06:48:43;1112.03;;;998.88;;
25231;SDS011;13176;51.140;6.290;2023-06-26T06:51:09;1126.22;;;999.65;;
25231;SDS011;13176;51.140;6.290;2023-06-26T06:53:36;1141.22;;;999.90;;
25231;SDS011;13176;51.140;6.290;2023-06-26T06:56:02;1115.78;;;997.90;;
25231;SDS011;13176;51.140;6.290;2023-06-26T06:58:29;1138.47;;;999.90;;
25231;SDS011;13176;51.140;6.290;2023-06-26T07:00:59;1094.68;;;983.33;;
25231;SDS011;13176;51.140;6.290;2023-06-26T07:03:28;1062.13;;;963.92;;
25231;SDS011;13176;51.140;6.290;2023-06-26T07:05:55;1054.35;;;958.65;;
25231;SDS011;13176;51.140;6.290;2023-06-26T07:08:24;940.65;;;862.35;;
25231;SDS011;13176;51.140;6.290;2023-06-26T07:10:50;1086.20;;;984.35;;
25231;SDS011;13176;51.140;6.290;2023-06-26T07:13:17;1007.55;;;919.70;;
25231;SDS011;13176;51.140;6.290;2023-06-26T07:15:44;1081.35;;;978.65;;
25231;SDS011;13176;51.140;6.290;2023-06-26T07:18:11;1061.28;;;963.95;;
25231;SDS011;13176;51.140;6.290;2023-06-26T07:20:38;1037.60;;;945.58;;
25231;SDS011;13176;51.140;6.290;2023-06-26T07:23:05;1047.32;;;948.80;;
25231;SDS011;13176;51.140;6.290;2023-06-26T07:25:31;1053.57;;;954.65;;
25231;SDS011;13176;51.140;6.290;2023-06-26T07:27:57;1071.30;;;969.28;;
25231;SDS011;13176;51.140;6.290;2023-06-26T07:30:24;1112.47;;;996.03;;
25231;SDS011;13176;51.140;6.290;2023-06-26T07:32:50;1010.17;;;920.67;;
25231;SDS011;13176;51.140;6.290;2023-06-26T07:35:17;1012.25;;;925.45;;
25231;SDS011;13176;51.140;6.290;2023-06-26T07:37:43;990.67;;;906.33;;
25231;SDS011;13176;51.140;6.290;2023-06-26T07:40:10;932.50;;;856.65;;
25231;SDS011;13176;51.140;6.290;2023-06-26T07:42:37;879.33;;;811.38;;
25231;SDS011;13176;51.140;6.290;2023-06-26T07:45:03;894.00;;;823.67;;
25231;SDS011;13176;51.140;6.290;2023-06-26T07:47:37;898.90;;;828.53;;
25231;SDS011;13176;51.140;6.290;2023-06-26T07:50:04;850.00;;;784.70;;
25231;SDS011;13176;51.140;6.290;2023-06-26T07:52:31;874.15;;;804.58;;
25231;SDS011;13176;51.140;6.290;2023-06-26T07:54:58;747.70;;;691.97;;
25231;SDS011;13176;51.140;6.290;2023-06-26T07:57:24;901.67;;;822.85;;
25231;SDS011;13176;51.140;6.290;2023-06-26T07:59:51;945.78;;;859.65;;
25231;SDS011;13176;51.140;6.290;2023-06-26T08:02:17;995.38;;;897.83;;
25231;SDS011;13176;51.140;6.290;2023-06-26T08:04:46;743.55;;;687.33;;
25231;SDS011;13176;51.140;6.290;2023-06-26T08:07:13;924.90;;;847.35;;
25231;SDS011;13176;51.140;6.290;2023-06-26T08:09:42;916.67;;;841.50;;
25231;SDS011;13176;51.140;6.290;2023-06-26T08:12:12;938.47;;;860.63;;
25231;SDS011;13176;51.140;6.290;2023-06-26T08:14:39;978.08;;;893.65;;
25231;SDS011;13176;51.140;6.290;2023-06-26T08:17:05;987.25;;;902.80;;
25231;SDS011;13176;51.140;6.290;2023-06-26T08:19:34;1036.30;;;944.22;;
25231;SDS011;13176;51.140;6.290;2023-06-26T08:22:00;1005.85;;;919.85;;
25231;SDS011;13176;51.140;6.290;2023-06-26T08:24:27;1050.35;;;957.78;;
25231;SDS011;13176;51.140;6.290;2023-06-26T08:26:53;1031.20;;;940.88;;
25231;SDS011;13176;51.140;6.290;2023-06-26T08:29:19;1005.92;;;920.50;;
25231;SDS011;13176;51.140;6.290;2023-06-26T08:31:46;957.30;;;878.95;;
25231;SDS011;13176;51.140;6.290;2023-06-26T08:34:12;846.85;;;779.80;;
25231;SDS011;13176;51.140;6.290;2023-06-26T08:36:39;861.15;;;789.50;;
25231;SDS011;13176;51.140;6.290;2023-06-26T08:39:05;824.92;;;756.92;;
25231;SDS011;13176;51.140;6.290;2023-06-26T08:41:39;904.70;;;825.60;;
25231;SDS011;13176;51.140;6.290;2023-06-26T08:44:06;722.92;;;668.38;;
25231;SDS011;13176;51.140;6.290;2023-06-26T08:46:33;1007.08;;;915.83;;
25231;SDS011;13176;51.140;6.290;2023-06-26T08:49:01;1055.55;;;952.95;;
25231;SDS011;13176;51.140;6.290;2023-06-26T08:51:32;851.05;;;778.88;;
25231;SDS011;13176;51.140;6.290;2023-06-26T08:54:02;978.10;;;892.58;;
25231;SDS011;13176;51.140;6.290;2023-06-26T08:56:40;725.55;;;670.38;;
25231;SDS011;13176;51.140;6.290;2023-06-26T08:59:08;896.20;;;822.97;;
25231;SDS011;13176;51.140;6.290;2023-06-26T09:01:40;937.85;;;857.65;;
25231;SDS011;13176;51.140;6.290;2023-06-26T09:04:07;912.20;;;837.58;;
25231;SDS011;13176;51.140;6.290;2023-06-26T09:06:34;901.33;;;826.85;;
25231;SDS011;13176;51.140;6.290;2023-06-26T09:09:03;972.17;;;885.15;;
25231;SDS011;13176;51.140;6.290;2023-06-26T09:11:30;602.53;;;559.75;;
25231;SDS011;13176;51.140;6.290;2023-06-26T09:13:56;900.33;;;819.90;;
25231;SDS011;13176;51.140;6.290;2023-06-26T09:16:25;668.10;;;621.35;;
25231;SDS011;13176;51.140;6.290;2023-06-26T09:18:53;880.33;;;811.67;;
25231;SDS011;13176;51.140;6.290;2023-06-26T09:21:19;630.08;;;586.92;;
25231;SDS011;13176;51.140;6.290;2023-06-26T09:23:48;799.03;;;740.78;;
25231;SDS011;13176;51.140;6.290;2023-06-26T09:26:17;867.88;;;801.45;;
25231;SDS011;13176;51.140;6.290;2023-06-26T09:28:43;749.88;;;694.80;;
25231;SDS011;13176;51.140;6.290;2023-06-26T09:31:10;513.92;;;480.42;;
25231;SDS011;13176;51.140;6.290;2023-06-26T09:33:40;840.83;;;777.85;;
25231;SDS011;13176;51.140;6.290;2023-06-26T09:36:09;722.05;;;672.08;;
25231;SDS011;13176;51.140;6.290;2023-06-26T09:38:46;797.25;;;739.42;;
25231;SDS011;13176;51.140;6.290;2023-06-26T09:41:15;891.65;;;822.33;;
25231;SDS011;13176;51.140;6.290;2023-06-26T09:43:49;849.90;;;784.42;;
25231;SDS011;13176;51.140;6.290;2023-06-26T09:49:06;1071.05;;;972.55;;
25231;SDS011;13176;51.140;6.290;2023-06-26T09:51:34;1150.72;;;999.90;;
25231;SDS011;13176;51.140;6.290;2023-06-26T09:54:02;766.85;;;710.08;;
25231;SDS011;13176;51.140;6.290;2023-06-26T09:56:30;689.85;;;644.03;;
25231;SDS011;13176;51.140;6.290;2023-06-26T09:58:59;685.50;;;633.08;;
25231;SDS011;13176;51.140;6.290;2023-06-26T10:01:27;746.05;;;690.15;;
25231;SDS011;13176;51.140;6.290;2023-06-26T10:03:57;1192.43;;;999.90;;
25231;SDS011;13176;51.140;6.290;2023-06-26T10:06:27;1262.30;;;999.90;;
25231;SDS011;13176;51.140;6.290;2023-06-26T10:08:58;1075.28;;;969.70;;
25231;SDS011;13176;51.140;6.290;2023-06-26T10:11:28;461.80;;;432.20;;
25231;SDS011;13176;51.140;6.290;2023-06-26T10:14:03;697.67;;;645.83;;
25231;SDS011;13176;51.140;6.290;2023-06-26T10:16:43;706.20;;;653.78;;
25231;SDS011;13176;51.140;6.290;2023-06-26T10:19:12;784.08;;;727.05;;
25231;SDS011;13176;51.140;6.290;2023-06-26T10:21:40;885.78;;;809.10;;
25231;SDS011;13176;51.140;6.290;2023-06-26T10:24:07;968.30;;;888.42;;
25231;SDS011;13176;51.140;6.290;2023-06-26T10:26:38;913.20;;;838.72;;
25231;SDS011;13176;51.140;6.290;2023-06-26T10:29:08;886.97;;;816.40;;
25231;SDS011;13176;51.140;6.290;2023-06-26T10:31:37;603.97;;;563.75;;
25231;SDS011;13176;51.140;6.290;2023-06-26T10:34:06;734.58;;;683.10;;
25231;SDS011;13176;51.140;6.290;2023-06-26T10:36:33;863.22;;;798.70;;
25231;SDS011;13176;51.140;6.290;2023-06-26T10:39:03;872.58;;;806.17;;
25231;SDS011;13176;51.140;6.290;2023-06-26T10:41:37;907.80;;;837.58;;
25231;SDS011;13176;51.140;6.290;2023-06-26T10:44:22;751.95;;;696.60;;
25231;SDS011;13176;51.140;6.290;2023-06-26T10:46:51;493.95;;;463.30;;
25231;SDS011;13176;51.140;6.290;2023-06-26T10:49:19;481.20;;;451.73;;
25231;SDS011;13176;51.140;6.290;2023-06-26T10:51:50;431.60;;;405.42;;
25231;SDS011;13176;51.140;6.290;2023-06-26T10:54:18;478.33;;;448.35;;
25231;SDS011;13176;51.140;6.290;2023-06-26T10:56:49;380.77;;;357.95;;
25231;SDS011;13176;51.140;6.290;2023-06-26T11:01:46;619.63;;;577.78;;
25231;SDS011;13176;51.140;6.290;2023-06-26T11:04:22;467.33;;;439.42;;
25231;SDS011;13176;51.140;6.290;2023-06-26T11:09:59;552.00;;;515.22;;
25231;SDS011;13176;51.140;6.290;2023-06-26T11:12:40;402.63;;;377.95;;
25231;SDS011;13176;51.140;6.290;2023-06-26T11:15:12;490.67;;;460.55;;
25231;SDS011;13176;51.140;6.290;2023-06-26T11:17:45;569.20;;;531.42;;
25231;SDS011;13176;51.140;6.290;2023-06-26T11:20:15;518.38;;;484.90;;
25231;SDS011;13176;51.140;6.290;2023-06-26T11:22:43;502.08;;;470.05;;
25231;SDS011;13176;51.140;6.290;2023-06-26T11:25:11;568.58;;;530.80;;
25231;SDS011;13176;51.140;6.290;2023-06-26T11:30:05;540.75;;;505.92;;
25231;SDS011;13176;51.140;6.290;2023-06-26T11:32:32;583.50;;;543.03;;
25231;SDS011;13176;51.140;6.290;2023-06-26T11:35:00;554.92;;;518.75;;
25231;SDS011;13176;51.140;6.290;2023-06-26T11:37:27;391.98;;;369.08;;
25231;SDS011;13176;51.140;6.290;2023-06-26T11:39:54;638.78;;;594.35;;
25231;SDS011;13176;51.140;6.290;2023-06-26T11:42:21;480.20;;;452.67;;
25231;SDS011;13176;51.140;6.290;2023-06-26T11:44:47;662.85;;;620.72;;
25231;SDS011;13176;51.140;6.290;2023-06-26T11:47:15;710.45;;;661.92;;
25231;SDS011;13176;51.140;6.290;2023-06-26T11:49:48;819.20;;;758.25;;
25231;SDS011;13176;51.140;6.290;2023-06-26T11:52:15;886.80;;;815.67;;
25231;SDS011;13176;51.140;6.290;2023-06-26T11:54:42;826.42;;;764.10;;
25231;SDS011;13176;51.140;6.290;2023-06-26T11:57:13;792.17;;;735.25;;
25231;SDS011;13176;51.140;6.290;2023-06-26T11:59:40;804.38;;;744.83;;
25231;SDS011;13176;51.140;6.290;2023-06-26T12:02:08;871.30;;;802.65;;
25231;SDS011;13176;51.140;6.290;2023-06-26T12:04:37;737.10;;;685.97;;
25231;SDS011;13176;51.140;6.290;2023-06-26T12:07:06;751.63;;;696.60;;
25231;SDS011;13176;51.140;6.290;2023-06-26T12:09:39;708.72;;;658.70;;
25231;SDS011;13176;51.140;6.290;2023-06-26T12:12:08;752.97;;;699.67;;
25231;SDS011;13176;51.140;6.290;2023-06-26T12:14:35;606.95;;;568.80;;
25231;SDS011;13176;51.140;6.290;2023-06-26T12:17:07;647.63;;;605.80;;
25231;SDS011;13176;51.140;6.290;2023-06-26T12:22:07;635.97;;;594.63;;
25231;SDS011;13176;51.140;6.290;2023-06-26T12:24:35;604.95;;;567.22;;
25231;SDS011;13176;51.140;6.290;2023-06-26T12:27:11;531.92;;;499.48;;
25231;SDS011;13176;51.140;6.290;2023-06-26T12:29:40;445.05;;;417.92;;
25231;SDS011;13176;51.140;6.290;2023-06-26T12:32:13;574.42;;;538.83;;
25231;SDS011;13176;51.140;6.290;2023-06-26T12:34:40;509.17;;;478.33;;
25231;SDS011;13176;51.140;6.290;2023-06-26T12:37:08;649.40;;;608.60;;
25231;SDS011;13176;51.140;6.290;2023-06-26T12:39:49;392.55;;;370.75;;
25231;SDS011;13176;51.140;6.290;2023-06-26T12:42:19;468.05;;;441.58;;
25231;SDS011;13176;51.140;6.290;2023-06-26T12:44:51;383.88;;;362.75;;
25231;SDS011;13176;51.140;6.290;2023-06-26T12:47:19;596.35;;;560.17;;
25231;SDS011;13176;51.140;6.290;2023-06-26T12:49:50;604.45;;;567.08;;
25231;SDS011;13176;51.140;6.290;2023-06-26T12:52:17;642.08;;;601.33;;
25231;SDS011;13176;51.140;6.290;2023-06-26T12:54:46;520.42;;;490.13;;
25231;SDS011;13176;51.140;6.290;2023-06-26T12:57:17;559.95;;;525.67;;
25231;SDS011;13176;51.140;6.290;2023-06-26T12:59:44;674.08;;;630.80;;
25231;SDS011;13176;51.140;6.290;2023-06-26T13:02:10;504.70;;;474.75;;
25231;SDS011;13176;51.140;6.290;2023-06-26T13:04:37;559.47;;;524.83;;
25231;SDS011;13176;51.140;6.290;2023-06-26T13:07:07;550.92;;;517.58;;
25231;SDS011;13176;51.140;6.290;2023-06-26T13:09:34;251.23;;;236.18;;
25231;SDS011;13176;51.140;6.290;2023-06-26T13:12:03;291.77;;;274.33;;
25231;SDS011;13176;51.140;6.290;2023-06-26T13:14:31;389.02;;;366.40;;
25231;SDS011;13176;51.140;6.290;2023-06-26T13:16:57;288.02;;;270.50;;
25231;SDS011;13176;51.140;6.290;2023-06-26T13:19:24;344.88;;;322.98;;
25231;SDS011;13176;51.140;6.290;2023-06-26T13:21:50;623.22;;;584.70;;
25231;SDS011;13176;51.140;6.290;2023-06-26T13:24:17;617.83;;;579.90;;
25231;SDS011;13176;51.140;6.290;2023-06-26T13:26:43;604.25;;;566.25;;
25231;SDS011;13176;51.140;6.290;2023-06-26T13:29:10;527.90;;;495.70;;
25231;SDS011;13176;51.140;6.290;2023-06-26T13:31:37;595.42;;;558.55;;
25231;SDS011;13176;51.140;6.290;2023-06-26T13:34:04;420.80;;;396.83;;
25231;SDS011;13176;51.140;6.290;2023-06-26T13:36:31;452.08;;;424.42;;
25231;SDS011;13176;51.140;6.290;2023-06-26T13:39:01;517.15;;;486.02;;
25231;SDS011;13176;51.140;6.290;2023-06-26T13:41:29;498.30;;;469.00;;
25231;SDS011;13176;51.140;6.290;2023-06-26T13:43:55;499.77;;;469.25;;
25231;SDS011;13176;51.140;6.290;2023-06-26T13:46:35;438.77;;;413.30;;
25231;SDS011;13176;51.140;6.290;2023-06-26T13:49:02;562.65;;;527.90;;
25231;SDS011;13176;51.140;6.290;2023-06-26T13:51:28;626.90;;;588.20;;
25231;SDS011;13176;51.140;6.290;2023-06-26T13:53:54;564.10;;;531.05;;
25231;SDS011;13176;51.140;6.290;2023-06-26T13:56:26;620.22;;;581.67;;
25231;SDS011;13176;51.140;6.290;2023-06-26T13:58:56;548.60;;;515.63;;
25231;SDS011;13176;51.140;6.290;2023-06-26T14:01:25;613.83;;;575.33;;
25231;SDS011;13176;51.140;6.290;2023-06-26T14:03:52;454.13;;;427.33;;
25231;SDS011;13176;51.140;6.290;2023-06-26T14:06:18;421.65;;;397.50;;
25231;SDS011;13176;51.140;6.290;2023-06-26T14:08:45;453.20;;;426.70;;
25231;SDS011;13176;51.140;6.290;2023-06-26T14:11:11;344.85;;;323.63;;
25231;SDS011;13176;51.140;6.290;2023-06-26T14:13:38;318.05;;;299.45;;
25231;SDS011;13176;51.140;6.290;2023-06-26T14:16:04;437.77;;;412.77;;
25231;SDS011;13176;51.140;6.290;2023-06-26T14:18:32;523.47;;;490.10;;